sensor_id;sensor_type;location;lat;lon;timestamp;P1;durP1;ratioP1;P2;durP2;ratioP2
75470;SDS011;64051;46.320;48.028;2023-04-03T00:01:43;16.70;;;4.18;;
75470;SDS011;64051;46.320;48.028;2023-04-03T00:04:09;19.33;;;4.25;;
75470;SDS011;64051;46.320;48.028;2023-04-03T00:06:35;10.20;;;3.40;;
75470;SDS011;64051;46.320;48.028;2023-04-03T00:09:04;15.93;;;3.17;;
75470;SDS011;64051;46.320;48.028;2023-04-03T00:11:30;13.68;;;3.42;;
75470;SDS011;64051;46.320;48.028;2023-04-03T00:13:55;23.63;;;4.07;;
75470;SDS011;64051;46.320;48.028;2023-04-03T00:16:22;15.07;;;3.75;;
75470;SDS011;64051;46.320;48.028;2023-04-03T00:18:48;19.58;;;3.55;;
75470;SDS011;64051;46.320;48.028;2023-04-03T00:21:13;17.38;;;4.13;;
75470;SDS011;64051;46.320;48.028;2023-04-03T00:23:40;12.70;;;4.07;;
75470;SDS011;64051;46.320;48.028;2023-04-03T00:26:06;14.68;;;4.18;;
75470;SDS011;64051;46.320;48.028;2023-04-03T00:28:32;19.77;;;4.05;;
75470;SDS011;64051;46.320;48.028;2023-04-03T00:30:58;19.92;;;4.38;;
75470;SDS011;64051;46.320;48.028;2023-04-03T00:33:24;16.98;;;3.45;;
75470;SDS011;64051;46.320;48.028;2023-04-03T00:35:50;11.40;;;3.55;;
75470;SDS011;64051;46.320;48.028;2023-04-03T00:38:17;14.98;;;3.65;;
75470;SDS011;64051;46.320;48.028;2023-04-03T00:40:44;13.45;;;3.83;;
75470;SDS011;64051;46.320;48.028;2023-04-03T00:43:13;15.38;;;5.22;;
75470;SDS011;64051;46.320;48.028;2023-04-03T00:45:46;21.65;;;4.03;;
75470;SDS011;64051;46.320;48.028;2023-04-03T00:48:15;13.45;;;3.35;;
75470;SDS011;64051;46.320;48.028;2023-04-03T00:50:44;11.07;;;3.45;;
75470;SDS011;64051;46.320;48.028;2023-04-03T00:53:12;15.02;;;4.13;;
75470;SDS011;64051;46.320;48.028;2023-04-03T00:55:43;18.92;;;4.22;;
75470;SDS011;64051;46.320;48.028;2023-04-03T00:58:10;9.32;;;3.95;;
75470;SDS011;64051;46.320;48.028;2023-04-03T01:00:38;11.68;;;3.58;;
75470;SDS011;64051;46.320;48.028;2023-04-03T01:03:07;10.25;;;3.70;;
75470;SDS011;64051;46.320;48.028;2023-04-03T01:05:35;12.05;;;3.53;;
75470;SDS011;64051;46.320;48.028;2023-04-03T01:08:01;13.88;;;4.20;;
75470;SDS011;64051;46.320;48.028;2023-04-03T01:10:27;12.77;;;3.28;;
75470;SDS011;64051;46.320;48.028;2023-04-03T01:12:53;20.33;;;4.50;;
75470;SDS011;64051;46.320;48.028;2023-04-03T01:15:24;17.63;;;4.20;;
75470;SDS011;64051;46.320;48.028;2023-04-03T01:17:56;18.08;;;3.97;;
75470;SDS011;64051;46.320;48.028;2023-04-03T01:25:36;15.10;;;3.90;;
75470;SDS011;64051;46.320;48.028;2023-04-03T01:28:19;18.55;;;4.00;;
75470;SDS011;64051;46.320;48.028;2023-04-03T01:33:34;14.65;;;4.78;;
75470;SDS011;64051;46.320;48.028;2023-04-03T01:36:01;19.75;;;4.43;;
75470;SDS011;64051;46.320;48.028;2023-04-03T01:38:28;13.55;;;3.78;;
75470;SDS011;64051;46.320;48.028;2023-04-03T01:40:54;16.42;;;4.03;;
75470;SDS011;64051;46.320;48.028;2023-04-03T01:43:20;33.25;;;5.10;;
75470;SDS011;64051;46.320;48.028;2023-04-03T01:45:46;12.48;;;3.85;;
75470;SDS011;64051;46.320;48.028;2023-04-03T01:48:16;17.70;;;3.88;;
75470;SDS011;64051;46.320;48.028;2023-04-03T01:50:42;16.75;;;3.97;;
75470;SDS011;64051;46.320;48.028;2023-04-03T01:53:08;15.38;;;4.00;;
75470;SDS011;64051;46.320;48.028;2023-04-03T01:55:34;14.45;;;4.30;;
75470;SDS011;64051;46.320;48.028;2023-04-03T01:58:00;17.45;;;4.13;;
75470;SDS011;64051;46.320;48.028;2023-04-03T02:00:26;18.45;;;4.38;;
75470;SDS011;64051;46.320;48.028;2023-04-03T02:02:52;13.55;;;3.92;;
75470;SDS011;64051;46.320;48.028;2023-04-03T02:05:18;11.70;;;4.03;;
75470;SDS011;64051;46.320;48.028;2023-04-03T02:07:44;16.88;;;4.05;;
75470;SDS011;64051;46.320;48.028;2023-04-03T02:10:11;18.25;;;3.90;;
75470;SDS011;64051;46.320;48.028;2023-04-03T02:12:37;11.88;;;3.88;;
75470;SDS011;64051;46.320;48.028;2023-04-03T02:15:03;17.50;;;4.80;;
75470;SDS011;64051;46.320;48.028;2023-04-03T02:17:29;17.70;;;4.47;;
75470;SDS011;64051;46.320;48.028;2023-04-03T02:19:55;17.20;;;4.15;;
75470;SDS011;64051;46.320;48.028;2023-04-03T02:22:22;19.50;;;4.18;;
75470;SDS011;64051;46.320;48.028;2023-04-03T02:24:48;14.25;;;4.47;;
75470;SDS011;64051;46.320;48.028;2023-04-03T02:27:14;14.35;;;3.55;;
75470;SDS011;64051;46.320;48.028;2023-04-03T02:29:40;18.40;;;5.10;;
75470;SDS011;64051;46.320;48.028;2023-04-03T02:32:06;21.73;;;6.53;;
75470;SDS011;64051;46.320;48.028;2023-04-03T02:34:33;15.95;;;5.03;;
75470;SDS011;64051;46.320;48.028;2023-04-03T02:37:00;15.20;;;5.13;;
75470;SDS011;64051;46.320;48.028;2023-04-03T02:39:26;16.45;;;4.68;;
75470;SDS011;64051;46.320;48.028;2023-04-03T02:41:54;17.75;;;4.90;;
75470;SDS011;64051;46.320;48.028;2023-04-03T02:44:22;13.43;;;3.40;;
75470;SDS011;64051;46.320;48.028;2023-04-03T02:46:49;15.68;;;3.58;;
75470;SDS011;64051;46.320;48.028;2023-04-03T02:49:16;14.15;;;3.50;;
75470;SDS011;64051;46.320;48.028;2023-04-03T02:51:42;19.33;;;4.20;;
75470;SDS011;64051;46.320;48.028;2023-04-03T02:54:08;15.82;;;3.30;;
75470;SDS011;64051;46.320;48.028;2023-04-03T02:56:37;22.45;;;4.97;;
75470;SDS011;64051;46.320;48.028;2023-04-03T02:59:04;19.80;;;3.95;;
75470;SDS011;64051;46.320;48.028;2023-04-03T03:01:32;21.60;;;5.68;;
75470;SDS011;64051;46.320;48.028;2023-04-03T03:03:58;18.58;;;4.18;;
75470;SDS011;64051;46.320;48.028;2023-04-03T03:06:26;16.65;;;4.32;;
75470;SDS011;64051;46.320;48.028;2023-04-03T03:08:53;17.67;;;4.60;;
75470;SDS011;64051;46.320;48.028;2023-04-03T03:11:19;45.20;;;9.40;;
75470;SDS011;64051;46.320;48.028;2023-04-03T03:13:46;47.97;;;11.63;;
75470;SDS011;64051;46.320;48.028;2023-04-03T03:16:12;43.35;;;10.65;;
75470;SDS011;64051;46.320;48.028;2023-04-03T03:18:38;33.38;;;8.23;;
75470;SDS011;64051;46.320;48.028;2023-04-03T03:21:04;20.42;;;5.85;;
75470;SDS011;64051;46.320;48.028;2023-04-03T03:23:31;24.15;;;6.32;;
75470;SDS011;64051;46.320;48.028;2023-04-03T03:25:58;15.27;;;4.07;;
75470;SDS011;64051;46.320;48.028;2023-04-03T03:28:26;28.48;;;7.82;;
75470;SDS011;64051;46.320;48.028;2023-04-03T03:30:52;31.08;;;9.30;;
75470;SDS011;64051;46.320;48.028;2023-04-03T03:33:19;24.73;;;9.60;;
75470;SDS011;64051;46.320;48.028;2023-04-03T03:35:45;25.95;;;10.05;;
75470;SDS011;64051;46.320;48.028;2023-04-03T03:38:11;29.67;;;10.95;;
75470;SDS011;64051;46.320;48.028;2023-04-03T03:40:37;40.10;;;11.65;;
75470;SDS011;64051;46.320;48.028;2023-04-03T03:43:04;32.97;;;12.32;;
75470;SDS011;64051;46.320;48.028;2023-04-03T03:45:30;34.75;;;10.82;;
75470;SDS011;64051;46.320;48.028;2023-04-03T03:47:56;30.40;;;10.73;;
75470;SDS011;64051;46.320;48.028;2023-04-03T03:50:22;24.65;;;7.18;;
75470;SDS011;64051;46.320;48.028;2023-04-03T03:52:49;20.48;;;5.53;;
75470;SDS011;64051;46.320;48.028;2023-04-03T03:55:16;16.45;;;5.57;;
75470;SDS011;64051;46.320;48.028;2023-04-03T03:57:43;23.58;;;6.40;;
75470;SDS011;64051;46.320;48.028;2023-04-03T04:00:09;17.98;;;5.78;;
75470;SDS011;64051;46.320;48.028;2023-04-03T04:02:46;23.58;;;5.93;;
75470;SDS011;64051;46.320;48.028;2023-04-03T04:05:19;18.58;;;5.30;;
75470;SDS011;64051;46.320;48.028;2023-04-03T04:07:45;25.58;;;6.80;;
75470;SDS011;64051;46.320;48.028;2023-04-03T04:10:11;17.25;;;4.90;;
75470;SDS011;64051;46.320;48.028;2023-04-03T04:12:39;20.40;;;5.15;;
75470;SDS011;64051;46.320;48.028;2023-04-03T04:15:05;19.48;;;5.78;;
75470;SDS011;64051;46.320;48.028;2023-04-03T04:17:32;17.55;;;4.72;;
75470;SDS011;64051;46.320;48.028;2023-04-03T04:20:02;24.83;;;4.47;;
75470;SDS011;64051;46.320;48.028;2023-04-03T04:22:32;21.35;;;4.25;;
75470;SDS011;64051;46.320;48.028;2023-04-03T04:24:58;14.57;;;3.25;;
75470;SDS011;64051;46.320;48.028;2023-04-03T04:27:25;16.85;;;3.38;;
75470;SDS011;64051;46.320;48.028;2023-04-03T04:29:51;19.92;;;3.97;;
75470;SDS011;64051;46.320;48.028;2023-04-03T04:32:17;13.82;;;3.40;;
75470;SDS011;64051;46.320;48.028;2023-04-03T04:34:44;17.23;;;2.97;;
75470;SDS011;64051;46.320;48.028;2023-04-03T04:37:10;17.27;;;3.25;;
75470;SDS011;64051;46.320;48.028;2023-04-03T04:39:36;19.23;;;3.65;;
75470;SDS011;64051;46.320;48.028;2023-04-03T04:42:02;11.38;;;3.28;;
75470;SDS011;64051;46.320;48.028;2023-04-03T04:44:31;10.02;;;3.03;;
75470;SDS011;64051;46.320;48.028;2023-04-03T04:47:00;10.82;;;3.08;;
75470;SDS011;64051;46.320;48.028;2023-04-03T04:49:26;16.27;;;3.53;;
75470;SDS011;64051;46.320;48.028;2023-04-03T04:51:52;12.93;;;2.78;;
75470;SDS011;64051;46.320;48.028;2023-04-03T04:54:26;23.25;;;4.00;;
75470;SDS011;64051;46.320;48.028;2023-04-03T04:56:52;15.68;;;3.38;;
75470;SDS011;64051;46.320;48.028;2023-04-03T04:59:19;9.27;;;3.10;;
75470;SDS011;64051;46.320;48.028;2023-04-03T05:01:48;10.13;;;2.67;;
75470;SDS011;64051;46.320;48.028;2023-04-03T05:04:15;18.42;;;3.42;;
75470;SDS011;64051;46.320;48.028;2023-04-03T05:06:45;15.98;;;3.47;;
75470;SDS011;64051;46.320;48.028;2023-04-03T05:09:15;16.42;;;3.72;;
75470;SDS011;64051;46.320;48.028;2023-04-03T05:11:43;21.40;;;3.22;;
75470;SDS011;64051;46.320;48.028;2023-04-03T05:14:09;13.48;;;3.50;;
75470;SDS011;64051;46.320;48.028;2023-04-03T05:16:35;16.60;;;3.30;;
75470;SDS011;64051;46.320;48.028;2023-04-03T05:19:02;8.63;;;2.88;;
75470;SDS011;64051;46.320;48.028;2023-04-03T05:21:29;21.70;;;3.55;;
75470;SDS011;64051;46.320;48.028;2023-04-03T05:24:00;15.73;;;3.35;;
75470;SDS011;64051;46.320;48.028;2023-04-03T05:26:32;13.07;;;3.53;;
75470;SDS011;64051;46.320;48.028;2023-04-03T05:28:59;10.90;;;2.92;;
75470;SDS011;64051;46.320;48.028;2023-04-03T05:31:25;13.35;;;3.08;;
75470;SDS011;64051;46.320;48.028;2023-04-03T05:33:51;13.32;;;2.70;;
75470;SDS011;64051;46.320;48.028;2023-04-03T05:36:17;16.27;;;3.75;;
75470;SDS011;64051;46.320;48.028;2023-04-03T05:38:47;11.63;;;2.85;;
75470;SDS011;64051;46.320;48.028;2023-04-03T05:41:14;13.82;;;3.45;;
75470;SDS011;64051;46.320;48.028;2023-04-03T05:43:46;11.10;;;3.05;;
75470;SDS011;64051;46.320;48.028;2023-04-03T05:46:14;14.32;;;3.08;;
75470;SDS011;64051;46.320;48.028;2023-04-03T05:48:44;16.05;;;3.53;;
75470;SDS011;64051;46.320;48.028;2023-04-03T05:51:22;11.10;;;3.10;;
75470;SDS011;64051;46.320;48.028;2023-04-03T05:54:11;6.07;;;2.33;;
75470;SDS011;64051;46.320;48.028;2023-04-03T05:56:45;10.30;;;2.97;;
75470;SDS011;64051;46.320;48.028;2023-04-03T05:59:11;12.80;;;3.00;;
75470;SDS011;64051;46.320;48.028;2023-04-03T06:01:37;9.45;;;3.35;;
75470;SDS011;64051;46.320;48.028;2023-04-03T06:04:10;13.50;;;3.00;;
75470;SDS011;64051;46.320;48.028;2023-04-03T06:06:51;10.80;;;2.78;;
75470;SDS011;64051;46.320;48.028;2023-04-03T06:09:23;7.03;;;2.83;;
75470;SDS011;64051;46.320;48.028;2023-04-03T06:11:51;12.00;;;2.95;;
75470;SDS011;64051;46.320;48.028;2023-04-03T06:14:19;10.02;;;2.50;;
75470;SDS011;64051;46.320;48.028;2023-04-03T06:16:48;9.60;;;3.10;;
75470;SDS011;64051;46.320;48.028;2023-04-03T06:19:18;9.93;;;2.80;;
75470;SDS011;64051;46.320;48.028;2023-04-03T06:21:51;10.93;;;2.75;;
75470;SDS011;64051;46.320;48.028;2023-04-03T06:24:18;7.78;;;2.83;;
75470;SDS011;64051;46.320;48.028;2023-04-03T06:26:47;11.93;;;2.85;;
75470;SDS011;64051;46.320;48.028;2023-04-03T06:29:14;9.10;;;2.65;;
75470;SDS011;64051;46.320;48.028;2023-04-03T06:31:43;10.60;;;3.05;;
75470;SDS011;64051;46.320;48.028;2023-04-03T06:34:09;11.68;;;2.75;;
75470;SDS011;64051;46.320;48.028;2023-04-03T06:36:38;15.10;;;3.30;;
75470;SDS011;64051;46.320;48.028;2023-04-03T06:39:05;9.45;;;3.17;;
75470;SDS011;64051;46.320;48.028;2023-04-03T06:41:32;14.80;;;3.50;;
75470;SDS011;64051;46.320;48.028;2023-04-03T06:43:58;10.77;;;3.25;;
75470;SDS011;64051;46.320;48.028;2023-04-03T06:46:25;11.73;;;3.50;;
75470;SDS011;64051;46.320;48.028;2023-04-03T06:48:52;9.07;;;3.00;;
75470;SDS011;64051;46.320;48.028;2023-04-03T06:51:19;12.18;;;3.67;;
75470;SDS011;64051;46.320;48.028;2023-04-03T06:53:50;12.82;;;3.47;;
75470;SDS011;64051;46.320;48.028;2023-04-03T06:56:18;8.32;;;3.15;;
75470;SDS011;64051;46.320;48.028;2023-04-03T06:58:44;9.73;;;3.33;;
75470;SDS011;64051;46.320;48.028;2023-04-03T07:01:12;11.70;;;3.17;;
75470;SDS011;64051;46.320;48.028;2023-04-03T07:03:42;10.27;;;3.00;;
75470;SDS011;64051;46.320;48.028;2023-04-03T07:06:09;8.95;;;3.30;;
75470;SDS011;64051;46.320;48.028;2023-04-03T07:08:37;11.40;;;3.10;;
75470;SDS011;64051;46.320;48.028;2023-04-03T07:11:04;8.63;;;2.83;;
75470;SDS011;64051;46.320;48.028;2023-04-03T07:13:30;9.93;;;3.10;;
75470;SDS011;64051;46.320;48.028;2023-04-03T07:15:56;11.35;;;3.28;;
75470;SDS011;64051;46.320;48.028;2023-04-03T07:18:22;8.85;;;3.35;;
75470;SDS011;64051;46.320;48.028;2023-04-03T07:20:48;11.13;;;2.95;;
75470;SDS011;64051;46.320;48.028;2023-04-03T07:23:14;9.75;;;2.67;;
75470;SDS011;64051;46.320;48.028;2023-04-03T07:25:43;12.00;;;2.70;;
75470;SDS011;64051;46.320;48.028;2023-04-03T07:28:10;10.55;;;3.03;;
75470;SDS011;64051;46.320;48.028;2023-04-03T07:30:43;6.93;;;2.90;;
75470;SDS011;64051;46.320;48.028;2023-04-03T07:33:21;8.32;;;3.10;;
75470;SDS011;64051;46.320;48.028;2023-04-03T07:35:48;8.23;;;3.25;;
75470;SDS011;64051;46.320;48.028;2023-04-03T07:38:14;11.30;;;2.95;;
75470;SDS011;64051;46.320;48.028;2023-04-03T07:40:45;7.95;;;3.00;;
75470;SDS011;64051;46.320;48.028;2023-04-03T07:43:12;11.35;;;2.80;;
75470;SDS011;64051;46.320;48.028;2023-04-03T07:45:37;7.15;;;2.78;;
75470;SDS011;64051;46.320;48.028;2023-04-03T07:48:03;9.43;;;2.80;;
75470;SDS011;64051;46.320;48.028;2023-04-03T07:50:29;6.65;;;2.50;;
75470;SDS011;64051;46.320;48.028;2023-04-03T07:52:56;8.63;;;2.78;;
75470;SDS011;64051;46.320;48.028;2023-04-03T07:55:23;8.52;;;3.08;;
75470;SDS011;64051;46.320;48.028;2023-04-03T07:57:49;10.05;;;3.90;;
75470;SDS011;64051;46.320;48.028;2023-04-03T08:00:15;10.63;;;3.20;;
75470;SDS011;64051;46.320;48.028;2023-04-03T08:02:43;6.97;;;2.88;;
75470;SDS011;64051;46.320;48.028;2023-04-03T08:05:12;9.60;;;3.35;;
75470;SDS011;64051;46.320;48.028;2023-04-03T08:07:38;13.00;;;3.10;;
75470;SDS011;64051;46.320;48.028;2023-04-03T08:10:04;7.63;;;2.92;;
75470;SDS011;64051;46.320;48.028;2023-04-03T08:12:30;11.18;;;3.97;;
75470;SDS011;64051;46.320;48.028;2023-04-03T08:15:03;8.88;;;3.30;;
75470;SDS011;64051;46.320;48.028;2023-04-03T08:17:33;7.03;;;3.00;;
75470;SDS011;64051;46.320;48.028;2023-04-03T08:20:03;5.38;;;2.72;;
75470;SDS011;64051;46.320;48.028;2023-04-03T08:22:30;6.03;;;2.80;;
75470;SDS011;64051;46.320;48.028;2023-04-03T08:24:56;11.10;;;4.28;;
75470;SDS011;64051;46.320;48.028;2023-04-03T08:27:22;8.05;;;3.05;;
75470;SDS011;64051;46.320;48.028;2023-04-03T08:29:48;9.25;;;2.83;;
75470;SDS011;64051;46.320;48.028;2023-04-03T08:32:14;7.70;;;3.25;;
75470;SDS011;64051;46.320;48.028;2023-04-03T08:34:40;7.63;;;3.20;;
75470;SDS011;64051;46.320;48.028;2023-04-03T08:37:07;10.55;;;4.38;;
75470;SDS011;64051;46.320;48.028;2023-04-03T08:39:33;6.72;;;3.10;;
75470;SDS011;64051;46.320;48.028;2023-04-03T08:42:00;6.20;;;3.20;;
75470;SDS011;64051;46.320;48.028;2023-04-03T08:44:39;10.82;;;3.38;;
75470;SDS011;64051;46.320;48.028;2023-04-03T08:47:23;8.38;;;3.75;;
75470;SDS011;64051;46.320;48.028;2023-04-03T08:50:00;9.75;;;3.30;;
75470;SDS011;64051;46.320;48.028;2023-04-03T08:52:42;6.88;;;3.58;;
75470;SDS011;64051;46.320;48.028;2023-04-03T08:55:34;11.63;;;3.63;;
75470;SDS011;64051;46.320;48.028;2023-04-03T08:58:24;6.93;;;2.97;;
75470;SDS011;64051;46.320;48.028;2023-04-03T09:01:03;9.07;;;3.30;;
75470;SDS011;64051;46.320;48.028;2023-04-03T09:03:40;10.13;;;3.08;;
75470;SDS011;64051;46.320;48.028;2023-04-03T09:06:17;6.72;;;2.97;;
75470;SDS011;64051;46.320;48.028;2023-04-03T09:14:23;7.82;;;3.28;;
75470;SDS011;64051;46.320;48.028;2023-04-03T09:16:58;7.35;;;3.03;;
75470;SDS011;64051;46.320;48.028;2023-04-03T09:27:42;8.40;;;3.00;;
75470;SDS011;64051;46.320;48.028;2023-04-03T09:30:19;7.68;;;3.15;;
75470;SDS011;64051;46.320;48.028;2023-04-03T09:32:52;6.63;;;3.10;;
75470;SDS011;64051;46.320;48.028;2023-04-03T09:35:26;7.55;;;2.97;;
75470;SDS011;64051;46.320;48.028;2023-04-03T09:38:00;7.07;;;3.15;;
75470;SDS011;64051;46.320;48.028;2023-04-03T09:40:31;7.60;;;3.17;;
75470;SDS011;64051;46.320;48.028;2023-04-03T09:43:19;6.72;;;3.10;;
75470;SDS011;64051;46.320;48.028;2023-04-03T09:45:46;8.82;;;3.00;;
75470;SDS011;64051;46.320;48.028;2023-04-03T09:53:29;9.05;;;3.30;;
75470;SDS011;64051;46.320;48.028;2023-04-03T09:58:45;10.57;;;3.50;;
75470;SDS011;64051;46.320;48.028;2023-04-03T10:01:39;8.43;;;3.33;;
75470;SDS011;64051;46.320;48.028;2023-04-03T10:04:15;7.40;;;3.60;;
75470;SDS011;64051;46.320;48.028;2023-04-03T10:06:54;8.15;;;3.15;;
75470;SDS011;64051;46.320;48.028;2023-04-03T10:09:30;6.35;;;2.97;;
75470;SDS011;64051;46.320;48.028;2023-04-03T10:14:37;6.45;;;3.17;;
75470;SDS011;64051;46.320;48.028;2023-04-03T10:17:24;11.40;;;3.05;;
75470;SDS011;64051;46.320;48.028;2023-04-03T10:23:21;8.38;;;2.97;;
75470;SDS011;64051;46.320;48.028;2023-04-03T10:31:23;7.07;;;2.97;;
75470;SDS011;64051;46.320;48.028;2023-04-03T10:36:56;8.05;;;2.90;;
75470;SDS011;64051;46.320;48.028;2023-04-03T10:53:21;9.10;;;2.95;;
75470;SDS011;64051;46.320;48.028;2023-04-03T10:56:19;5.95;;;3.00;;
75470;SDS011;64051;46.320;48.028;2023-04-03T10:59:02;7.03;;;2.63;;
75470;SDS011;64051;46.320;48.028;2023-04-03T11:01:35;5.65;;;2.67;;
75470;SDS011;64051;46.320;48.028;2023-04-03T11:04:07;11.10;;;3.00;;
75470;SDS011;64051;46.320;48.028;2023-04-03T11:06:40;5.15;;;2.67;;
75470;SDS011;64051;46.320;48.028;2023-04-03T11:09:22;7.68;;;3.03;;
75470;SDS011;64051;46.320;48.028;2023-04-03T11:11:56;8.05;;;2.90;;
75470;SDS011;64051;46.320;48.028;2023-04-03T11:20:01;15.65;;;7.13;;
75470;SDS011;64051;46.320;48.028;2023-04-03T11:25:46;10.05;;;3.30;;
75470;SDS011;64051;46.320;48.028;2023-04-03T11:32:16;6.68;;;2.88;;
75470;SDS011;64051;46.320;48.028;2023-04-03T11:35:24;6.38;;;2.90;;
75470;SDS011;64051;46.320;48.028;2023-04-03T11:37:54;7.28;;;2.70;;
75470;SDS011;64051;46.320;48.028;2023-04-03T11:40:22;6.57;;;2.50;;
75470;SDS011;64051;46.320;48.028;2023-04-03T11:43:07;8.60;;;3.72;;
75470;SDS011;64051;46.320;48.028;2023-04-03T11:46:00;9.25;;;3.42;;
75470;SDS011;64051;46.320;48.028;2023-04-03T11:51:46;8.60;;;3.45;;
75470;SDS011;64051;46.320;48.028;2023-04-03T11:53:50;5.25;;;2.50;;
75470;SDS011;64051;46.320;48.028;2023-04-03T12:01:48;18.75;;;5.90;;
75470;SDS011;64051;46.320;48.028;2023-04-03T12:04:17;22.80;;;8.50;;
75470;SDS011;64051;46.320;48.028;2023-04-03T12:09:32;11.50;;;3.20;;
75470;SDS011;64051;46.320;48.028;2023-04-03T12:11:59;5.35;;;2.50;;
75470;SDS011;64051;46.320;48.028;2023-04-03T12:14:49;10.95;;;3.40;;
75470;SDS011;64051;46.320;48.028;2023-04-03T12:17:20;7.47;;;3.33;;
75470;SDS011;64051;46.320;48.028;2023-04-03T12:19:51;10.23;;;2.72;;
75470;SDS011;64051;46.320;48.028;2023-04-03T12:22:21;6.18;;;3.17;;
75470;SDS011;64051;46.320;48.028;2023-04-03T12:24:48;7.45;;;3.20;;
75470;SDS011;64051;46.320;48.028;2023-04-03T12:33:15;9.40;;;3.40;;
75470;SDS011;64051;46.320;48.028;2023-04-03T12:35:37;8.90;;;2.95;;
75470;SDS011;64051;46.320;48.028;2023-04-03T12:41:38;9.88;;;3.97;;
75470;SDS011;64051;46.320;48.028;2023-04-03T12:44:21;9.52;;;3.38;;
75470;SDS011;64051;46.320;48.028;2023-04-03T12:47:33;9.95;;;3.10;;
75470;SDS011;64051;46.320;48.028;2023-04-03T12:50:02;9.75;;;3.50;;
75470;SDS011;64051;46.320;48.028;2023-04-03T12:52:47;6.65;;;3.00;;
75470;SDS011;64051;46.320;48.028;2023-04-03T12:55:28;7.40;;;3.35;;
75470;SDS011;64051;46.320;48.028;2023-04-03T12:58:16;7.22;;;2.88;;
75470;SDS011;64051;46.320;48.028;2023-04-03T13:00:58;7.82;;;3.25;;
75470;SDS011;64051;46.320;48.028;2023-04-03T13:03:29;7.95;;;3.17;;
75470;SDS011;64051;46.320;48.028;2023-04-03T13:05:59;8.48;;;3.03;;
75470;SDS011;64051;46.320;48.028;2023-04-03T13:08:30;5.95;;;2.80;;
75470;SDS011;64051;46.320;48.028;2023-04-03T13:11:04;8.88;;;2.83;;
75470;SDS011;64051;46.320;48.028;2023-04-03T13:13:40;9.98;;;3.40;;
75470;SDS011;64051;46.320;48.028;2023-04-03T13:16:36;17.13;;;4.50;;
75470;SDS011;64051;46.320;48.028;2023-04-03T13:19:16;9.10;;;3.50;;
75470;SDS011;64051;46.320;48.028;2023-04-03T13:21:48;12.40;;;3.90;;
75470;SDS011;64051;46.320;48.028;2023-04-03T13:24:19;9.13;;;2.92;;
75470;SDS011;64051;46.320;48.028;2023-04-03T13:26:45;8.00;;;2.70;;
75470;SDS011;64051;46.320;48.028;2023-04-03T13:29:22;21.83;;;7.13;;
75470;SDS011;64051;46.320;48.028;2023-04-03T13:31:56;6.68;;;2.30;;
75470;SDS011;64051;46.320;48.028;2023-04-03T13:34:24;7.22;;;2.60;;
75470;SDS011;64051;46.320;48.028;2023-04-03T13:37:03;7.25;;;2.72;;
75470;SDS011;64051;46.320;48.028;2023-04-03T13:39:44;6.43;;;2.92;;
75470;SDS011;64051;46.320;48.028;2023-04-03T13:42:23;6.47;;;2.80;;
75470;SDS011;64051;46.320;48.028;2023-04-03T13:53:49;8.93;;;2.88;;
75470;SDS011;64051;46.320;48.028;2023-04-03T13:59:19;8.82;;;2.85;;
75470;SDS011;64051;46.320;48.028;2023-04-03T14:04:44;5.95;;;2.75;;
75470;SDS011;64051;46.320;48.028;2023-04-03T14:07:11;7.03;;;2.75;;
75470;SDS011;64051;46.320;48.028;2023-04-03T14:09:46;5.60;;;2.60;;
75470;SDS011;64051;46.320;48.028;2023-04-03T14:12:35;6.13;;;2.60;;
75470;SDS011;64051;46.320;48.028;2023-04-03T14:15:15;6.55;;;2.50;;
75470;SDS011;64051;46.320;48.028;2023-04-03T14:17:49;6.82;;;2.50;;
75470;SDS011;64051;46.320;48.028;2023-04-03T14:20:24;6.72;;;2.63;;
75470;SDS011;64051;46.320;48.028;2023-04-03T14:22:55;8.63;;;2.70;;
75470;SDS011;64051;46.320;48.028;2023-04-03T14:25:25;6.45;;;2.50;;
75470;SDS011;64051;46.320;48.028;2023-04-03T14:27:52;4.45;;;2.20;;
75470;SDS011;64051;46.320;48.028;2023-04-03T14:30:24;5.05;;;2.55;;
75470;SDS011;64051;46.320;48.028;2023-04-03T14:32:57;6.75;;;3.40;;
75470;SDS011;64051;46.320;48.028;2023-04-03T14:35:24;5.95;;;2.88;;
75470;SDS011;64051;46.320;48.028;2023-04-03T14:37:53;4.85;;;2.10;;
75470;SDS011;64051;46.320;48.028;2023-04-03T14:40:24;5.15;;;2.30;;
75470;SDS011;64051;46.320;48.028;2023-04-03T14:42:58;5.57;;;2.17;;
75470;SDS011;64051;46.320;48.028;2023-04-03T14:45:39;6.80;;;3.00;;
75470;SDS011;64051;46.320;48.028;2023-04-03T14:48:06;8.52;;;3.00;;
75470;SDS011;64051;46.320;48.028;2023-04-03T14:51:04;4.88;;;2.28;;
75470;SDS011;64051;46.320;48.028;2023-04-03T14:53:37;7.03;;;2.60;;
75470;SDS011;64051;46.320;48.028;2023-04-03T14:58:45;4.72;;;2.22;;
75470;SDS011;64051;46.320;48.028;2023-04-03T15:01:22;8.35;;;2.88;;
75470;SDS011;64051;46.320;48.028;2023-04-03T15:03:55;9.07;;;2.90;;
75470;SDS011;64051;46.320;48.028;2023-04-03T15:06:25;7.78;;;3.35;;
75470;SDS011;64051;46.320;48.028;2023-04-03T15:08:52;7.45;;;2.97;;
75470;SDS011;64051;46.320;48.028;2023-04-03T15:11:24;6.68;;;3.00;;
75470;SDS011;64051;46.320;48.028;2023-04-03T15:14:09;5.63;;;2.90;;
75470;SDS011;64051;46.320;48.028;2023-04-03T15:16:45;10.65;;;3.85;;
75470;SDS011;64051;46.320;48.028;2023-04-03T15:19:14;7.43;;;3.53;;
75470;SDS011;64051;46.320;48.028;2023-04-03T15:21:40;10.30;;;3.65;;
75470;SDS011;64051;46.320;48.028;2023-04-03T15:24:10;7.80;;;4.03;;
75470;SDS011;64051;46.320;48.028;2023-04-03T15:26:36;9.15;;;4.32;;
75470;SDS011;64051;46.320;48.028;2023-04-03T15:29:03;8.00;;;4.00;;
75470;SDS011;64051;46.320;48.028;2023-04-03T15:31:33;8.38;;;4.15;;
75470;SDS011;64051;46.320;48.028;2023-04-03T15:34:06;9.02;;;3.65;;
75470;SDS011;64051;46.320;48.028;2023-04-03T15:36:33;9.15;;;3.78;;
75470;SDS011;64051;46.320;48.028;2023-04-03T15:39:10;8.45;;;4.35;;
75470;SDS011;64051;46.320;48.028;2023-04-03T15:41:45;9.00;;;4.30;;
75470;SDS011;64051;46.320;48.028;2023-04-03T15:44:13;12.10;;;3.95;;
75470;SDS011;64051;46.320;48.028;2023-04-03T15:46:39;11.23;;;3.80;;
75470;SDS011;64051;46.320;48.028;2023-04-03T15:49:12;9.57;;;4.05;;
75470;SDS011;64051;46.320;48.028;2023-04-03T15:51:38;13.77;;;4.22;;
75470;SDS011;64051;46.320;48.028;2023-04-03T15:54:27;8.68;;;4.32;;
75470;SDS011;64051;46.320;48.028;2023-04-03T15:56:56;10.40;;;4.50;;
75470;SDS011;64051;46.320;48.028;2023-04-03T15:59:22;8.80;;;3.85;;
75470;SDS011;64051;46.320;48.028;2023-04-03T16:01:57;9.48;;;4.32;;
75470;SDS011;64051;46.320;48.028;2023-04-03T16:04:24;10.00;;;4.35;;
75470;SDS011;64051;46.320;48.028;2023-04-03T16:07:01;12.75;;;5.15;;
75470;SDS011;64051;46.320;48.028;2023-04-03T16:09:37;12.50;;;5.50;;
75470;SDS011;64051;46.320;48.028;2023-04-03T16:12:05;9.40;;;4.78;;
75470;SDS011;64051;46.320;48.028;2023-04-03T16:14:31;9.65;;;4.88;;
75470;SDS011;64051;46.320;48.028;2023-04-03T16:16:58;13.48;;;5.20;;
75470;SDS011;64051;46.320;48.028;2023-04-03T16:19:30;12.45;;;4.85;;
75470;SDS011;64051;46.320;48.028;2023-04-03T16:21:59;11.32;;;5.18;;
75470;SDS011;64051;46.320;48.028;2023-04-03T16:24:28;11.18;;;5.10;;
75470;SDS011;64051;46.320;48.028;2023-04-03T16:26:54;11.00;;;5.05;;
75470;SDS011;64051;46.320;48.028;2023-04-03T16:29:35;15.10;;;6.32;;
75470;SDS011;64051;46.320;48.028;2023-04-03T16:34:51;12.95;;;5.30;;
75470;SDS011;64051;46.320;48.028;2023-04-03T16:37:18;12.95;;;5.57;;